sensor_id;sensor_type;location;lat;lon;timestamp;P1;durP1;ratioP1;P2;durP2;ratioP2
49392;SDS011;35268;42.642;23.308;2023-07-31T00:01:32;4.93;;;2.90;;
49392;SDS011;35268;42.642;23.308;2023-07-31T00:04:00;4.68;;;2.38;;
49392;SDS011;35268;42.642;23.308;2023-07-31T00:06:25;5.00;;;2.85;;
49392;SDS011;35268;42.642;23.308;2023-07-31T00:08:51;3.63;;;2.40;;
49392;SDS011;35268;42.642;23.308;2023-07-31T00:11:32;7.32;;;3.47;;
49392;SDS011;35268;42.642;23.308;2023-07-31T00:14:00;5.32;;;2.78;;
49392;SDS011;35268;42.642;23.308;2023-07-31T00:16:26;6.78;;;3.38;;
49392;SDS011;35268;42.642;23.308;2023-07-31T00:18:57;5.10;;;2.72;;
49392;SDS011;35268;42.642;23.308;2023-07-31T00:21:23;4.97;;;3.25;;
49392;SDS011;35268;42.642;23.308;2023-07-31T00:23:48;3.83;;;2.60;;
49392;SDS011;35268;42.642;23.308;2023-07-31T00:26:14;6.13;;;3.35;;
49392;SDS011;35268;42.642;23.308;2023-07-31T00:28:39;6.78;;;3.30;;
49392;SDS011;35268;42.642;23.308;2023-07-31T00:31:05;6.45;;;2.67;;
49392;SDS011;35268;42.642;23.308;2023-07-31T00:33:31;4.57;;;2.97;;
49392;SDS011;35268;42.642;23.308;2023-07-31T00:35:56;4.75;;;3.35;;
49392;SDS011;35268;42.642;23.308;2023-07-31T00:38:22;4.15;;;3.05;;
49392;SDS011;35268;42.642;23.308;2023-07-31T00:40:47;4.72;;;3.00;;
49392;SDS011;35268;42.642;23.308;2023-07-31T00:43:13;4.88;;;3.40;;
49392;SDS011;35268;42.642;23.308;2023-07-31T00:45:38;5.65;;;3.90;;
49392;SDS011;35268;42.642;23.308;2023-07-31T00:48:04;6.45;;;3.38;;
49392;SDS011;35268;42.642;23.308;2023-07-31T00:50:31;6.97;;;4.03;;
49392;SDS011;35268;42.642;23.308;2023-07-31T00:52:58;6.75;;;4.30;;
49392;SDS011;35268;42.642;23.308;2023-07-31T00:55:23;5.18;;;4.22;;
49392;SDS011;35268;42.642;23.308;2023-07-31T00:57:49;7.15;;;5.32;;
49392;SDS011;35268;42.642;23.308;2023-07-31T01:00:16;10.57;;;5.60;;
49392;SDS011;35268;42.642;23.308;2023-07-31T01:02:42;8.50;;;6.22;;
49392;SDS011;35268;42.642;23.308;2023-07-31T01:05:08;8.70;;;6.70;;
49392;SDS011;35268;42.642;23.308;2023-07-31T01:10:08;9.63;;;7.78;;
49392;SDS011;35268;42.642;23.308;2023-07-31T01:12:40;10.52;;;7.88;;
49392;SDS011;35268;42.642;23.308;2023-07-31T01:15:07;11.95;;;9.35;;
49392;SDS011;35268;42.642;23.308;2023-07-31T01:17:37;14.52;;;11.40;;
49392;SDS011;35268;42.642;23.308;2023-07-31T01:20:04;15.27;;;11.30;;
49392;SDS011;35268;42.642;23.308;2023-07-31T01:27:58;17.88;;;14.63;;
49392;SDS011;35268;42.642;23.308;2023-07-31T01:30:32;17.65;;;14.38;;
49392;SDS011;35268;42.642;23.308;2023-07-31T01:33:00;21.85;;;15.65;;
49392;SDS011;35268;42.642;23.308;2023-07-31T01:35:31;19.38;;;15.55;;
49392;SDS011;35268;42.642;23.308;2023-07-31T01:37:58;19.50;;;15.93;;
49392;SDS011;35268;42.642;23.308;2023-07-31T01:40:24;20.17;;;15.73;;
49392;SDS011;35268;42.642;23.308;2023-07-31T01:42:49;20.65;;;17.13;;
49392;SDS011;35268;42.642;23.308;2023-07-31T01:45:15;20.85;;;16.75;;
49392;SDS011;35268;42.642;23.308;2023-07-31T01:47:40;25.42;;;18.08;;
49392;SDS011;35268;42.642;23.308;2023-07-31T01:50:06;32.30;;;20.92;;
49392;SDS011;35268;42.642;23.308;2023-07-31T01:52:32;25.75;;;19.60;;
49392;SDS011;35268;42.642;23.308;2023-07-31T01:54:57;24.33;;;19.23;;
49392;SDS011;35268;42.642;23.308;2023-07-31T01:57:22;23.77;;;19.52;;
49392;SDS011;35268;42.642;23.308;2023-07-31T01:59:48;27.75;;;20.38;;
49392;SDS011;35268;42.642;23.308;2023-07-31T02:02:14;25.77;;;19.77;;
49392;SDS011;35268;42.642;23.308;2023-07-31T02:04:39;25.92;;;20.73;;
49392;SDS011;35268;42.642;23.308;2023-07-31T02:07:05;25.00;;;20.40;;
49392;SDS011;35268;42.642;23.308;2023-07-31T02:09:31;25.73;;;20.90;;
49392;SDS011;35268;42.642;23.308;2023-07-31T02:11:56;26.35;;;20.83;;
49392;SDS011;35268;42.642;23.308;2023-07-31T02:14:22;30.77;;;21.60;;
49392;SDS011;35268;42.642;23.308;2023-07-31T02:16:47;27.45;;;20.55;;
49392;SDS011;35268;42.642;23.308;2023-07-31T02:19:13;25.55;;;19.20;;
49392;SDS011;35268;42.642;23.308;2023-07-31T02:21:38;25.92;;;20.17;;
49392;SDS011;35268;42.642;23.308;2023-07-31T02:24:04;28.15;;;20.75;;
49392;SDS011;35268;42.642;23.308;2023-07-31T02:26:29;24.02;;;19.35;;
49392;SDS011;35268;42.642;23.308;2023-07-31T02:28:55;24.48;;;19.30;;
49392;SDS011;35268;42.642;23.308;2023-07-31T02:31:20;26.20;;;20.05;;
49392;SDS011;35268;42.642;23.308;2023-07-31T02:33:46;24.10;;;18.95;;
49392;SDS011;35268;42.642;23.308;2023-07-31T02:36:11;27.42;;;18.88;;
49392;SDS011;35268;42.642;23.308;2023-07-31T02:38:37;23.30;;;19.17;;
49392;SDS011;35268;42.642;23.308;2023-07-31T02:41:02;24.83;;;18.95;;
49392;SDS011;35268;42.642;23.308;2023-07-31T02:43:27;25.90;;;19.77;;
49392;SDS011;35268;42.642;23.308;2023-07-31T02:45:53;23.23;;;18.90;;
49392;SDS011;35268;42.642;23.308;2023-07-31T02:48:19;26.00;;;21.00;;
49392;SDS011;35268;42.642;23.308;2023-07-31T02:50:44;28.95;;;20.35;;
49392;SDS011;35268;42.642;23.308;2023-07-31T02:53:10;28.30;;;20.88;;
49392;SDS011;35268;42.642;23.308;2023-07-31T02:55:36;21.95;;;17.42;;
49392;SDS011;35268;42.642;23.308;2023-07-31T02:58:01;23.33;;;19.15;;
49392;SDS011;35268;42.642;23.308;2023-07-31T03:00:27;26.75;;;20.92;;
49392;SDS011;35268;42.642;23.308;2023-07-31T03:02:53;25.13;;;19.67;;
49392;SDS011;35268;42.642;23.308;2023-07-31T03:05:18;30.42;;;20.45;;
49392;SDS011;35268;42.642;23.308;2023-07-31T03:07:44;21.98;;;17.65;;
49392;SDS011;35268;42.642;23.308;2023-07-31T03:10:09;21.20;;;17.85;;
49392;SDS011;35268;42.642;23.308;2023-07-31T03:12:34;23.98;;;19.00;;
49392;SDS011;35268;42.642;23.308;2023-07-31T03:15:00;23.45;;;18.42;;
49392;SDS011;35268;42.642;23.308;2023-07-31T03:17:25;23.98;;;18.58;;
49392;SDS011;35268;42.642;23.308;2023-07-31T03:19:51;26.98;;;18.63;;
49392;SDS011;35268;42.642;23.308;2023-07-31T03:22:16;27.30;;;19.27;;
49392;SDS011;35268;42.642;23.308;2023-07-31T03:24:42;29.77;;;20.50;;
49392;SDS011;35268;42.642;23.308;2023-07-31T03:27:07;24.40;;;19.10;;
49392;SDS011;35268;42.642;23.308;2023-07-31T03:29:33;26.52;;;20.33;;
49392;SDS011;35268;42.642;23.308;2023-07-31T03:31:58;24.33;;;18.67;;
49392;SDS011;35268;42.642;23.308;2023-07-31T03:34:24;24.92;;;18.88;;
49392;SDS011;35268;42.642;23.308;2023-07-31T03:36:49;25.83;;;18.90;;
49392;SDS011;35268;42.642;23.308;2023-07-31T03:39:15;26.35;;;18.77;;
49392;SDS011;35268;42.642;23.308;2023-07-31T03:41:40;26.65;;;19.67;;
49392;SDS011;35268;42.642;23.308;2023-07-31T03:44:06;26.42;;;19.73;;
49392;SDS011;35268;42.642;23.308;2023-07-31T03:46:31;26.40;;;20.10;;
49392;SDS011;35268;42.642;23.308;2023-07-31T03:48:57;28.50;;;21.50;;
49392;SDS011;35268;42.642;23.308;2023-07-31T03:51:22;30.10;;;21.85;;
49392;SDS011;35268;42.642;23.308;2023-07-31T03:53:47;24.45;;;18.80;;
49392;SDS011;35268;42.642;23.308;2023-07-31T03:56:13;26.73;;;19.88;;
49392;SDS011;35268;42.642;23.308;2023-07-31T03:58:38;28.88;;;20.85;;
49392;SDS011;35268;42.642;23.308;2023-07-31T04:01:04;26.95;;;20.30;;
49392;SDS011;35268;42.642;23.308;2023-07-31T04:03:29;30.67;;;20.85;;
49392;SDS011;35268;42.642;23.308;2023-07-31T04:05:55;27.33;;;20.75;;
49392;SDS011;35268;42.642;23.308;2023-07-31T04:08:21;29.85;;;21.45;;
49392;SDS011;35268;42.642;23.308;2023-07-31T04:10:47;29.73;;;21.15;;
49392;SDS011;35268;42.642;23.308;2023-07-31T04:13:13;27.13;;;19.67;;
49392;SDS011;35268;42.642;23.308;2023-07-31T04:15:39;25.50;;;19.13;;
49392;SDS011;35268;42.642;23.308;2023-07-31T04:18:04;25.00;;;19.63;;
49392;SDS011;35268;42.642;23.308;2023-07-31T04:20:30;28.17;;;19.45;;
49392;SDS011;35268;42.642;23.308;2023-07-31T04:22:56;27.13;;;21.00;;
49392;SDS011;35268;42.642;23.308;2023-07-31T04:25:21;28.92;;;19.90;;
49392;SDS011;35268;42.642;23.308;2023-07-31T04:27:47;30.30;;;18.85;;
49392;SDS011;35268;42.642;23.308;2023-07-31T04:30:12;25.35;;;18.33;;
49392;SDS011;35268;42.642;23.308;2023-07-31T04:32:38;24.85;;;18.90;;
49392;SDS011;35268;42.642;23.308;2023-07-31T04:35:04;34.13;;;19.70;;
49392;SDS011;35268;42.642;23.308;2023-07-31T04:37:39;23.60;;;17.60;;
49392;SDS011;35268;42.642;23.308;2023-07-31T04:40:05;23.35;;;16.23;;
49392;SDS011;35268;42.642;23.308;2023-07-31T04:42:30;21.15;;;15.45;;
49392;SDS011;35268;42.642;23.308;2023-07-31T04:44:56;25.85;;;16.00;;
49392;SDS011;35268;42.642;23.308;2023-07-31T04:47:21;21.90;;;14.98;;
49392;SDS011;35268;42.642;23.308;2023-07-31T04:49:47;18.50;;;14.15;;
49392;SDS011;35268;42.642;23.308;2023-07-31T04:52:12;22.17;;;14.43;;
49392;SDS011;35268;42.642;23.308;2023-07-31T04:54:38;19.58;;;14.85;;
49392;SDS011;35268;42.642;23.308;2023-07-31T04:57:03;18.42;;;13.88;;
49392;SDS011;35268;42.642;23.308;2023-07-31T04:59:31;17.58;;;13.77;;
49392;SDS011;35268;42.642;23.308;2023-07-31T05:01:57;21.58;;;15.73;;
49392;SDS011;35268;42.642;23.308;2023-07-31T05:04:22;19.77;;;15.07;;
49392;SDS011;35268;42.642;23.308;2023-07-31T05:06:48;18.17;;;14.05;;
49392;SDS011;35268;42.642;23.308;2023-07-31T05:09:16;22.33;;;15.20;;
49392;SDS011;35268;42.642;23.308;2023-07-31T05:11:43;19.77;;;14.80;;
49392;SDS011;35268;42.642;23.308;2023-07-31T05:14:08;19.33;;;13.95;;
49392;SDS011;35268;42.642;23.308;2023-07-31T05:16:34;18.27;;;13.38;;
49392;SDS011;35268;42.642;23.308;2023-07-31T05:18:59;16.83;;;12.68;;
49392;SDS011;35268;42.642;23.308;2023-07-31T05:21:25;16.52;;;12.75;;
49392;SDS011;35268;42.642;23.308;2023-07-31T05:23:50;16.65;;;12.30;;
49392;SDS011;35268;42.642;23.308;2023-07-31T05:26:16;15.15;;;12.30;;
49392;SDS011;35268;42.642;23.308;2023-07-31T05:28:41;17.33;;;13.23;;
49392;SDS011;35268;42.642;23.308;2023-07-31T05:31:07;14.50;;;11.48;;
49392;SDS011;35268;42.642;23.308;2023-07-31T05:33:32;16.45;;;12.07;;
49392;SDS011;35268;42.642;23.308;2023-07-31T05:35:59;17.15;;;12.02;;
49392;SDS011;35268;42.642;23.308;2023-07-31T05:38:24;15.73;;;10.63;;
49392;SDS011;35268;42.642;23.308;2023-07-31T05:40:50;15.65;;;10.82;;
49392;SDS011;35268;42.642;23.308;2023-07-31T05:43:15;15.18;;;11.07;;
49392;SDS011;35268;42.642;23.308;2023-07-31T05:45:44;13.18;;;10.75;;
49392;SDS011;35268;42.642;23.308;2023-07-31T05:48:39;15.43;;;11.48;;
49392;SDS011;35268;42.642;23.308;2023-07-31T05:51:29;15.32;;;11.02;;
49392;SDS011;35268;42.642;23.308;2023-07-31T05:53:54;13.88;;;10.73;;
49392;SDS011;35268;42.642;23.308;2023-07-31T05:56:22;11.63;;;9.30;;
49392;SDS011;35268;42.642;23.308;2023-07-31T06:01:58;10.75;;;8.25;;
49392;SDS011;35268;42.642;23.308;2023-07-31T06:04:41;12.35;;;7.38;;
49392;SDS011;35268;42.642;23.308;2023-07-31T06:07:58;9.88;;;8.25;;
49392;SDS011;35268;42.642;23.308;2023-07-31T06:10:31;13.93;;;7.78;;
49392;SDS011;35268;42.642;23.308;2023-07-31T06:12:57;10.55;;;7.18;;
49392;SDS011;35268;42.642;23.308;2023-07-31T06:15:28;9.85;;;6.72;;
49392;SDS011;35268;42.642;23.308;2023-07-31T06:18:13;8.50;;;6.15;;
49392;SDS011;35268;42.642;23.308;2023-07-31T06:20:39;9.27;;;6.00;;
49392;SDS011;35268;42.642;23.308;2023-07-31T06:23:07;7.93;;;4.85;;
49392;SDS011;35268;42.642;23.308;2023-07-31T06:25:51;7.18;;;5.05;;
49392;SDS011;35268;42.642;23.308;2023-07-31T06:32:06;9.93;;;5.00;;
49392;SDS011;35268;42.642;23.308;2023-07-31T06:34:32;9.13;;;4.05;;
49392;SDS011;35268;42.642;23.308;2023-07-31T06:37:06;8.55;;;3.88;;
49392;SDS011;35268;42.642;23.308;2023-07-31T06:39:51;9.07;;;3.50;;
49392;SDS011;35268;42.642;23.308;2023-07-31T06:45:36;9.93;;;4.22;;
49392;SDS011;35268;42.642;23.308;2023-07-31T06:48:02;6.75;;;4.15;;
49392;SDS011;35268;42.642;23.308;2023-07-31T06:50:29;6.40;;;3.85;;
49392;SDS011;35268;42.642;23.308;2023-07-31T06:53:33;5.18;;;3.67;;
49392;SDS011;35268;42.642;23.308;2023-07-31T06:56:20;6.15;;;3.95;;
49392;SDS011;35268;42.642;23.308;2023-07-31T06:58:46;6.20;;;3.72;;
49392;SDS011;35268;42.642;23.308;2023-07-31T07:01:14;4.38;;;3.05;;
49392;SDS011;35268;42.642;23.308;2023-07-31T07:03:47;5.28;;;3.15;;
49392;SDS011;35268;42.642;23.308;2023-07-31T07:06:15;4.90;;;3.55;;
49392;SDS011;35268;42.642;23.308;2023-07-31T07:08:41;6.43;;;3.40;;
49392;SDS011;35268;42.642;23.308;2023-07-31T07:11:10;7.53;;;3.60;;
49392;SDS011;35268;42.642;23.308;2023-07-31T07:13:38;3.92;;;2.47;;
49392;SDS011;35268;42.642;23.308;2023-07-31T07:16:03;9.82;;;3.20;;
49392;SDS011;35268;42.642;23.308;2023-07-31T07:18:35;7.43;;;4.55;;
49392;SDS011;35268;42.642;23.308;2023-07-31T07:21:00;4.35;;;3.15;;
49392;SDS011;35268;42.642;23.308;2023-07-31T07:23:27;4.47;;;3.20;;
49392;SDS011;35268;42.642;23.308;2023-07-31T07:25:52;7.57;;;4.55;;
49392;SDS011;35268;42.642;23.308;2023-07-31T07:28:18;8.88;;;3.38;;
49392;SDS011;35268;42.642;23.308;2023-07-31T07:30:43;5.30;;;3.10;;
49392;SDS011;35268;42.642;23.308;2023-07-31T07:33:09;10.88;;;2.88;;
49392;SDS011;35268;42.642;23.308;2023-07-31T07:35:35;6.10;;;2.05;;
49392;SDS011;35268;42.642;23.308;2023-07-31T07:38:02;3.42;;;2.20;;
49392;SDS011;35268;42.642;23.308;2023-07-31T07:40:28;5.70;;;3.10;;
49392;SDS011;35268;42.642;23.308;2023-07-31T07:42:54;5.68;;;2.30;;
49392;SDS011;35268;42.642;23.308;2023-07-31T07:45:19;7.30;;;2.30;;
49392;SDS011;35268;42.642;23.308;2023-07-31T07:47:44;3.70;;;2.72;;
49392;SDS011;35268;42.642;23.308;2023-07-31T07:50:10;7.65;;;2.40;;
49392;SDS011;35268;42.642;23.308;2023-07-31T07:52:35;3.65;;;2.47;;
49392;SDS011;35268;42.642;23.308;2023-07-31T07:55:01;4.32;;;2.42;;
49392;SDS011;35268;42.642;23.308;2023-07-31T07:57:27;9.75;;;2.42;;
49392;SDS011;35268;42.642;23.308;2023-07-31T07:59:52;4.63;;;2.67;;
49392;SDS011;35268;42.642;23.308;2023-07-31T08:02:18;7.80;;;2.42;;
49392;SDS011;35268;42.642;23.308;2023-07-31T08:04:43;3.50;;;2.50;;
49392;SDS011;35268;42.642;23.308;2023-07-31T08:07:12;3.50;;;2.33;;
49392;SDS011;35268;42.642;23.308;2023-07-31T08:09:37;3.50;;;2.28;;
49392;SDS011;35268;42.642;23.308;2023-07-31T08:12:03;3.78;;;2.20;;
49392;SDS011;35268;42.642;23.308;2023-07-31T08:14:29;2.72;;;1.95;;
49392;SDS011;35268;42.642;23.308;2023-07-31T08:16:55;4.50;;;2.05;;
49392;SDS011;35268;42.642;23.308;2023-07-31T08:19:20;5.15;;;2.15;;
49392;SDS011;35268;42.642;23.308;2023-07-31T08:21:46;5.03;;;2.95;;
49392;SDS011;35268;42.642;23.308;2023-07-31T08:24:11;6.78;;;2.40;;
49392;SDS011;35268;42.642;23.308;2023-07-31T08:26:37;4.55;;;2.28;;
49392;SDS011;35268;42.642;23.308;2023-07-31T08:29:02;6.75;;;2.28;;
49392;SDS011;35268;42.642;23.308;2023-07-31T08:31:28;5.35;;;2.75;;
49392;SDS011;35268;42.642;23.308;2023-07-31T08:33:54;4.13;;;2.53;;
49392;SDS011;35268;42.642;23.308;2023-07-31T08:36:20;4.85;;;2.10;;
49392;SDS011;35268;42.642;23.308;2023-07-31T08:38:45;6.95;;;2.30;;
49392;SDS011;35268;42.642;23.308;2023-07-31T08:41:10;4.88;;;2.35;;
49392;SDS011;35268;42.642;23.308;2023-07-31T08:43:38;3.65;;;2.15;;
49392;SDS011;35268;42.642;23.308;2023-07-31T08:46:04;7.15;;;2.58;;
49392;SDS011;35268;42.642;23.308;2023-07-31T08:48:29;4.32;;;2.20;;
49392;SDS011;35268;42.642;23.308;2023-07-31T08:50:56;3.78;;;2.00;;
49392;SDS011;35268;42.642;23.308;2023-07-31T08:53:22;6.65;;;2.40;;
49392;SDS011;35268;42.642;23.308;2023-07-31T08:55:48;4.07;;;2.60;;
49392;SDS011;35268;42.642;23.308;2023-07-31T08:58:14;3.40;;;2.30;;
49392;SDS011;35268;42.642;23.308;2023-07-31T09:00:41;5.50;;;2.35;;
49392;SDS011;35268;42.642;23.308;2023-07-31T09:03:09;6.85;;;2.70;;
49392;SDS011;35268;42.642;23.308;2023-07-31T09:05:42;3.20;;;2.20;;
49392;SDS011;35268;42.642;23.308;2023-07-31T09:08:09;3.08;;;1.90;;
49392;SDS011;35268;42.642;23.308;2023-07-31T09:10:40;7.25;;;1.85;;
49392;SDS011;35268;42.642;23.308;2023-07-31T09:13:07;5.40;;;2.22;;
49392;SDS011;35268;42.642;23.308;2023-07-31T09:15:33;3.88;;;2.13;;
49392;SDS011;35268;42.642;23.308;2023-07-31T09:18:00;6.15;;;2.03;;
49392;SDS011;35268;42.642;23.308;2023-07-31T09:20:26;3.47;;;2.42;;
49392;SDS011;35268;42.642;23.308;2023-07-31T09:22:52;4.93;;;2.10;;
49392;SDS011;35268;42.642;23.308;2023-07-31T09:30:17;7.43;;;2.33;;
49392;SDS011;35268;42.642;23.308;2023-07-31T09:32:44;8.00;;;2.50;;
49392;SDS011;35268;42.642;23.308;2023-07-31T09:37:38;3.35;;;2.30;;
49392;SDS011;35268;42.642;23.308;2023-07-31T09:40:04;4.28;;;2.20;;
49392;SDS011;35268;42.642;23.308;2023-07-31T09:42:29;3.33;;;2.35;;
49392;SDS011;35268;42.642;23.308;2023-07-31T09:45:06;3.40;;;2.03;;
49392;SDS011;35268;42.642;23.308;2023-07-31T09:47:33;10.10;;;1.88;;
49392;SDS011;35268;42.642;23.308;2023-07-31T09:49:59;5.68;;;2.17;;
49392;SDS011;35268;42.642;23.308;2023-07-31T09:52:26;4.38;;;2.55;;
49392;SDS011;35268;42.642;23.308;2023-07-31T09:54:53;4.80;;;2.70;;
49392;SDS011;35268;42.642;23.308;2023-07-31T09:57:19;3.95;;;2.05;;
49392;SDS011;35268;42.642;23.308;2023-07-31T09:59:47;8.48;;;2.30;;
49392;SDS011;35268;42.642;23.308;2023-07-31T10:02:15;6.43;;;2.03;;
49392;SDS011;35268;42.642;23.308;2023-07-31T10:04:45;7.53;;;2.55;;
49392;SDS011;35268;42.642;23.308;2023-07-31T10:07:14;3.30;;;1.92;;
49392;SDS011;35268;42.642;23.308;2023-07-31T10:09:42;7.22;;;2.10;;
49392;SDS011;35268;42.642;23.308;2023-07-31T10:12:08;3.67;;;2.05;;
49392;SDS011;35268;42.642;23.308;2023-07-31T10:14:37;3.65;;;2.20;;
49392;SDS011;35268;42.642;23.308;2023-07-31T10:17:04;3.53;;;1.92;;
49392;SDS011;35268;42.642;23.308;2023-07-31T10:19:30;6.28;;;2.15;;
49392;SDS011;35268;42.642;23.308;2023-07-31T10:21:57;5.35;;;2.00;;
49392;SDS011;35268;42.642;23.308;2023-07-31T10:24:23;7.97;;;2.20;;
49392;SDS011;35268;42.642;23.308;2023-07-31T10:26:50;5.88;;;2.75;;
49392;SDS011;35268;42.642;23.308;2023-07-31T10:29:18;5.93;;;1.75;;
49392;SDS011;35268;42.642;23.308;2023-07-31T10:31:45;6.45;;;2.25;;
49392;SDS011;35268;42.642;23.308;2023-07-31T10:34:12;4.30;;;1.95;;
49392;SDS011;35268;42.642;23.308;2023-07-31T10:36:38;3.00;;;1.70;;
49392;SDS011;35268;42.642;23.308;2023-07-31T10:39:04;2.97;;;1.38;;
49392;SDS011;35268;42.642;23.308;2023-07-31T10:41:32;3.15;;;1.75;;
49392;SDS011;35268;42.642;23.308;2023-07-31T10:44:01;8.85;;;2.13;;
49392;SDS011;35268;42.642;23.308;2023-07-31T10:46:29;4.82;;;1.88;;
49392;SDS011;35268;42.642;23.308;2023-07-31T10:48:58;3.05;;;1.85;;
49392;SDS011;35268;42.642;23.308;2023-07-31T10:51:32;7.25;;;1.60;;
49392;SDS011;35268;42.642;23.308;2023-07-31T10:54:13;9.05;;;2.00;;
49392;SDS011;35268;42.642;23.308;2023-07-31T10:56:44;4.13;;;1.65;;
49392;SDS011;35268;42.642;23.308;2023-07-31T10:59:11;3.75;;;1.80;;
49392;SDS011;35268;42.642;23.308;2023-07-31T11:01:50;14.30;;;2.88;;
49392;SDS011;35268;42.642;23.308;2023-07-31T11:04:21;2.70;;;1.20;;
49392;SDS011;35268;42.642;23.308;2023-07-31T11:06:55;2.22;;;1.35;;
49392;SDS011;35268;42.642;23.308;2023-07-31T11:09:22;3.15;;;1.95;;
49392;SDS011;35268;42.642;23.308;2023-07-31T11:11:49;3.88;;;1.60;;
49392;SDS011;35268;42.642;23.308;2023-07-31T11:14:16;2.63;;;1.50;;
49392;SDS011;35268;42.642;23.308;2023-07-31T11:16:42;3.95;;;1.50;;
49392;SDS011;35268;42.642;23.308;2023-07-31T11:19:08;2.33;;;1.52;;
49392;SDS011;35268;42.642;23.308;2023-07-31T11:21:33;2.20;;;1.30;;
49392;SDS011;35268;42.642;23.308;2023-07-31T11:23:59;3.75;;;1.23;;
49392;SDS011;35268;42.642;23.308;2023-07-31T11:26:25;5.13;;;1.25;;
49392;SDS011;35268;42.642;23.308;2023-07-31T11:28:50;3.97;;;1.25;;
49392;SDS011;35268;42.642;23.308;2023-07-31T11:31:16;2.70;;;1.42;;
49392;SDS011;35268;42.642;23.308;2023-07-31T11:33:43;2.85;;;1.48;;
49392;SDS011;35268;42.642;23.308;2023-07-31T11:36:18;2.45;;;1.42;;
49392;SDS011;35268;42.642;23.308;2023-07-31T11:38:45;8.80;;;1.40;;
49392;SDS011;35268;42.642;23.308;2023-07-31T11:41:13;3.08;;;1.60;;
49392;SDS011;35268;42.642;23.308;2023-07-31T11:43:39;5.10;;;1.40;;
49392;SDS011;35268;42.642;23.308;2023-07-31T11:46:05;3.38;;;1.80;;
49392;SDS011;35268;42.642;23.308;2023-07-31T11:48:35;2.85;;;1.90;;
49392;SDS011;35268;42.642;23.308;2023-07-31T11:51:03;4.85;;;2.03;;
49392;SDS011;35268;42.642;23.308;2023-07-31T11:53:31;6.93;;;2.42;;
49392;SDS011;35268;42.642;23.308;2023-07-31T11:56:02;6.07;;;2.13;;
49392;SDS011;35268;42.642;23.308;2023-07-31T11:58:32;7.38;;;1.92;;
49392;SDS011;35268;42.642;23.308;2023-07-31T12:00:59;9.23;;;2.58;;
49392;SDS011;35268;42.642;23.308;2023-07-31T12:03:26;6.50;;;2.05;;
49392;SDS011;35268;42.642;23.308;2023-07-31T12:05:55;2.83;;;1.92;;
49392;SDS011;35268;42.642;23.308;2023-07-31T12:08:21;4.40;;;2.08;;
49392;SDS011;35268;42.642;23.308;2023-07-31T12:10:49;3.83;;;2.30;;
49392;SDS011;35268;42.642;23.308;2023-07-31T12:13:22;3.40;;;2.13;;
49392;SDS011;35268;42.642;23.308;2023-07-31T12:15:53;5.15;;;2.83;;
49392;SDS011;35268;42.642;23.308;2023-07-31T12:18:19;4.10;;;2.60;;
49392;SDS011;35268;42.642;23.308;2023-07-31T12:20:46;7.53;;;2.15;;
49392;SDS011;35268;42.642;23.308;2023-07-31T12:23:17;3.35;;;1.88;;
49392;SDS011;35268;42.642;23.308;2023-07-31T12:25:44;6.03;;;4.20;;
49392;SDS011;35268;42.642;23.308;2023-07-31T12:28:10;9.80;;;3.60;;
49392;SDS011;35268;42.642;23.308;2023-07-31T12:30:44;4.05;;;2.90;;
49392;SDS011;35268;42.642;23.308;2023-07-31T12:33:13;5.28;;;3.25;;
49392;SDS011;35268;42.642;23.308;2023-07-31T12:35:44;7.78;;;4.53;;
49392;SDS011;35268;42.642;23.308;2023-07-31T12:38:11;6.40;;;5.03;;
49392;SDS011;35268;42.642;23.308;2023-07-31T12:40:38;5.03;;;3.90;;
49392;SDS011;35268;42.642;23.308;2023-07-31T12:43:04;4.63;;;3.42;;
49392;SDS011;35268;42.642;23.308;2023-07-31T12:45:30;5.25;;;4.18;;
49392;SDS011;35268;42.642;23.308;2023-07-31T12:47:56;5.30;;;4.03;;
49392;SDS011;35268;42.642;23.308;2023-07-31T12:50:22;8.32;;;4.22;;
49392;SDS011;35268;42.642;23.308;2023-07-31T12:52:48;5.97;;;3.92;;
49392;SDS011;35268;42.642;23.308;2023-07-31T12:55:14;8.45;;;3.75;;
49392;SDS011;35268;42.642;23.308;2023-07-31T12:57:40;5.95;;;3.40;;
49392;SDS011;35268;42.642;23.308;2023-07-31T13:00:07;5.13;;;3.13;;
49392;SDS011;35268;42.642;23.308;2023-07-31T13:02:33;6.70;;;4.82;;
49392;SDS011;35268;42.642;23.308;2023-07-31T13:04:58;5.97;;;4.18;;
49392;SDS011;35268;42.642;23.308;2023-07-31T13:07:23;9.55;;;4.25;;
49392;SDS011;35268;42.642;23.308;2023-07-31T13:09:49;6.65;;;3.60;;
49392;SDS011;35268;42.642;23.308;2023-07-31T13:12:17;10.85;;;4.22;;
49392;SDS011;35268;42.642;23.308;2023-07-31T13:15:09;10.65;;;4.97;;
49392;SDS011;35268;42.642;23.308;2023-07-31T13:17:35;11.57;;;4.95;;
49392;SDS011;35268;42.642;23.308;2023-07-31T13:20:01;9.43;;;5.13;;
49392;SDS011;35268;42.642;23.308;2023-07-31T13:22:27;6.25;;;4.35;;
49392;SDS011;35268;42.642;23.308;2023-07-31T13:24:53;8.68;;;4.15;;
49392;SDS011;35268;42.642;23.308;2023-07-31T13:27:18;7.78;;;4.18;;
49392;SDS011;35268;42.642;23.308;2023-07-31T13:29:46;9.50;;;4.90;;
49392;SDS011;35268;42.642;23.308;2023-07-31T13:32:12;5.28;;;4.05;;
49392;SDS011;35268;42.642;23.308;2023-07-31T13:34:37;6.00;;;4.10;;
49392;SDS011;35268;42.642;23.308;2023-07-31T13:37:03;7.00;;;4.53;;
49392;SDS011;35268;42.642;23.308;2023-07-31T13:39:30;6.38;;;2.78;;
49392;SDS011;35268;42.642;23.308;2023-07-31T13:41:56;14.98;;;4.25;;
49392;SDS011;35268;42.642;23.308;2023-07-31T13:44:21;4.35;;;3.30;;
49392;SDS011;35268;42.642;23.308;2023-07-31T13:46:47;5.70;;;2.53;;
49392;SDS011;35268;42.642;23.308;2023-07-31T13:49:12;8.63;;;3.35;;
49392;SDS011;35268;42.642;23.308;2023-07-31T13:51:37;3.80;;;2.92;;
49392;SDS011;35268;42.642;23.308;2023-07-31T13:54:04;10.60;;;3.40;;
49392;SDS011;35268;42.642;23.308;2023-07-31T13:56:29;6.22;;;3.33;;
49392;SDS011;35268;42.642;23.308;2023-07-31T13:58:55;5.32;;;2.97;;
49392;SDS011;35268;42.642;23.308;2023-07-31T14:01:20;4.32;;;2.92;;
49392;SDS011;35268;42.642;23.308;2023-07-31T14:03:46;4.00;;;2.80;;
49392;SDS011;35268;42.642;23.308;2023-07-31T14:06:11;6.00;;;2.85;;
49392;SDS011;35268;42.642;23.308;2023-07-31T14:08:37;4.65;;;2.65;;
49392;SDS011;35268;42.642;23.308;2023-07-31T14:11:02;6.05;;;2.78;;
49392;SDS011;35268;42.642;23.308;2023-07-31T14:13:27;6.07;;;3.33;;
49392;SDS011;35268;42.642;23.308;2023-07-31T14:15:53;4.15;;;2.95;;
49392;SDS011;35268;42.642;23.308;2023-07-31T14:18:18;4.32;;;3.25;;
49392;SDS011;35268;42.642;23.308;2023-07-31T14:20:44;7.13;;;3.10;;
49392;SDS011;35268;42.642;23.308;2023-07-31T14:23:09;8.23;;;2.65;;
49392;SDS011;35268;42.642;23.308;2023-07-31T14:25:35;3.90;;;2.90;;
49392;SDS011;35268;42.642;23.308;2023-07-31T14:28:00;5.03;;;2.92;;
49392;SDS011;35268;42.642;23.308;2023-07-31T14:30:26;9.25;;;2.65;;
49392;SDS011;35268;42.642;23.308;2023-07-31T14:32:51;8.00;;;2.90;;
49392;SDS011;35268;42.642;23.308;2023-07-31T14:35:17;5.68;;;2.80;;
49392;SDS011;35268;42.642;23.308;2023-07-31T14:37:43;7.13;;;2.90;;
49392;SDS011;35268;42.642;23.308;2023-07-31T14:40:10;5.97;;;2.65;;
49392;SDS011;35268;42.642;23.308;2023-07-31T14:42:37;12.80;;;2.60;;
49392;SDS011;35268;42.642;23.308;2023-07-31T14:45:04;4.63;;;2.42;;
49392;SDS011;35268;42.642;23.308;2023-07-31T14:47:30;3.28;;;2.17;;
49392;SDS011;35268;42.642;23.308;2023-07-31T14:49:57;5.80;;;2.58;;
49392;SDS011;35268;42.642;23.308;2023-07-31T14:52:22;5.95;;;3.10;;